»·PEaware :: N89878 L52-L88

N89878 :: L52-L88

FLIGHT INFORMATION

Flight Status: Arrived
Operator: Privately registered:
United States
More flights under this callsign
Pilot: Anonymous 33140 (33140)
Aircraft: CESSNA 152 AEROBAT
(C152)
More flights by this aircraft type
Origin: L52 Oceano Co
United States
Destination: L88 New Cuyama
United States
More flights between these airports :: More routes between these airports
Route: FLW
File this flight plan on PilotEdge
Remarks:
Altitude:
(Current/Filed)
6,500ft
Speed:
(Current/Filed)
110kts
Departed: 04-Jan-21 11:30 AM
Arrived: 04-Jan-21 12:18 PM
Distance/Time
Traveled:
0nm/0:48
Distance/Time
To Go:
Arrived

Flight Plot

Page will automatically refresh every two minutes.


Map Options




Map Legend


Flown Route
Filed Route
Departure Airport
Arrival Airport
Navaid (VOR, NDB)
Fix

Horizontal Profiles

Position Reports

Time Latitude Longitude Heading Altitude Ground
Speed
04-Jan-21 11:21 34.942611 -119.690257 108 2153ft 0kts
04-Jan-21 11:22 34.942611 -119.690257 108 2153ft 0kts
04-Jan-21 11:23 34.942540 -119.690258 231 2153ft 2kts
04-Jan-21 11:24 34.942607 -119.690887 240 2150ft 0kts
04-Jan-21 11:25 34.942607 -119.690887 240 2150ft 0kts
04-Jan-21 11:26 34.942607 -119.690887 240 2150ft 0kts
04-Jan-21 11:27 34.941001 -119.688052 117 2166ft 21kts
04-Jan-21 11:28 34.937882 -119.680429 115 2204ft 24kts
04-Jan-21 11:29 34.940719 -119.686897 304 2345ft 57kts
04-Jan-21 11:30 34.951861 -119.703105 309 3002ft 64kts
04-Jan-21 11:31 34.969262 -119.702414 13 3580ft 76kts
04-Jan-21 11:32 34.988632 -119.693334 23 4234ft 74kts
04-Jan-21 11:36 35.102153 -120.622308 16 17ft 0kts
04-Jan-21 11:37 35.102153 -120.622308 16 17ft 0kts
04-Jan-21 11:38 35.102153 -120.622308 16 17ft 0kts
04-Jan-21 11:39 35.102153 -120.622308 16 17ft 0kts
04-Jan-21 11:40 35.102153 -120.622308 16 17ft 0kts
04-Jan-21 11:41 35.102153 -120.622308 16 17ft 0kts
04-Jan-21 11:42 35.102094 -120.622511 302 17ft 9kts
04-Jan-21 11:43 35.103506 -120.625244 292 17ft 0kts
04-Jan-21 11:44 35.099328 -120.618418 124 139ft 70kts
04-Jan-21 11:45 35.088023 -120.598121 124 898ft 74kts
04-Jan-21 11:46 35.084480 -120.574258 87 1652ft 75kts
04-Jan-21 11:47 35.085693 -120.548773 86 2372ft 75kts
04-Jan-21 11:48 35.086943 -120.522905 86 3053ft 77kts
04-Jan-21 11:49 35.088276 -120.496633 86 3710ft 78kts
04-Jan-21 11:50 35.089741 -120.470126 86 4374ft 78kts
04-Jan-21 11:51 35.091205 -120.443249 86 4976ft 79kts
04-Jan-21 11:52 35.092544 -120.416060 91 5563ft 80kts
04-Jan-21 11:53 35.093505 -120.388579 86 6101ft 81kts
04-Jan-21 11:55 35.095446 -120.352473 86 6440ft 98kts
04-Jan-21 11:55 35.096660 -120.323469 86 6502ft 104kts
04-Jan-21 11:56 35.097290 -120.287659 88 6519ft 107kts
04-Jan-21 11:57 35.098019 -120.251174 91 6510ft 107kts
04-Jan-21 11:58 35.092216 -120.215530 101 6344ft 107kts
04-Jan-21 11:59 35.086162 -120.179890 101 6197ft 106kts
04-Jan-21 12:00 35.080802 -120.144206 91 6138ft 107kts
04-Jan-21 12:01 35.078901 -120.108274 94 6170ft 106kts
04-Jan-21 12:02 35.077583 -120.072152 79 6210ft 106kts
04-Jan-21 12:03 35.083856 -120.036782 78 6219ft 106kts
04-Jan-21 12:04 35.089617 -120.001375 78 6240ft 106kts
04-Jan-21 12:05 35.094189 -119.965643 87 6264ft 106kts
04-Jan-21 12:06 35.095794 -119.929586 93 6249ft 106kts
04-Jan-21 12:07 35.093391 -119.893504 103 6207ft 106kts
04-Jan-21 12:08 35.086843 -119.858330 110 6226ft 106kts
04-Jan-21 12:09 35.065932 -119.835687 143 5431ft 97kts
04-Jan-21 12:10 35.045252 -119.814972 140 4517ft 95kts
04-Jan-21 12:11 35.025024 -119.794087 140 3681ft 94kts
04-Jan-21 12:12 35.004875 -119.773887 141 2988ft 92kts
04-Jan-21 12:13 34.986366 -119.753702 133 2542ft 86kts
04-Jan-21 12:14 34.973370 -119.731450 115 2296ft 75kts
04-Jan-21 12:15 34.962027 -119.709325 134 2317ft 75kts
04-Jan-21 12:16 34.944481 -119.696882 121 2294ft 56kts
04-Jan-21 12:17 34.941519 -119.689466 297 2160ft 12kts
04-Jan-21 12:18 34.942716 -119.690017 261 2153ft 0kts
04-Jan-21 12:19 34.942716 -119.690017 261 2153ft 0kts
04-Jan-21 12:20 34.942716 -119.690017 261 2153ft 0kts
04-Jan-21 12:21 34.942716 -119.690017 261 2153ft 0kts
04-Jan-21 12:22 34.942716 -119.690017 261 2153ft 0kts
04-Jan-21 12:23 34.942716 -119.690017 261 2153ft 0kts
04-Jan-21 12:24 34.942716 -119.690017 261 2153ft 0kts
04-Jan-21 12:25 34.942716 -119.690017 261 2153ft 0kts
04-Jan-21 12:26 0.000408 0.013975 0 3ft 0kts
04-Jan-21 12:27 0.000408 0.013975 0 3ft 0kts
04-Jan-21 12:28 0.000408 0.013975 0 3ft 0kts
04-Jan-21 12:29 0.000408 0.013975 0 3ft 0kts
04-Jan-21 12:30 35.102153 -120.622308 16 17ft 0kts
04-Jan-21 12:31 35.102153 -120.622308 16 17ft 0kts
04-Jan-21 12:32 35.102153 -120.622308 16 17ft 0kts

Navigation Log

Ident Type
Flight plan parsing failed, navigation log unavailable